Time;durP1;ratioP1;P1;durP2;ratioP2;P2;SDS_P1;SDS_P2;PMS_P1;PMS_P2;Temp;Humidity;BMP_temperature;BMP_pressure;BME280_temperature;BME280_humidity;BME280_pressure;Samples;Min_cycle;Max_cycle;Signal;HPM_P1;HPM_P2
2021/11/17 02:27:16;;;;;;;4.90;2.92;;;;;;;;;;5036080;28;20080;-57
2021/11/17 02:29:41;;;;;;;9.40;4.50;;;;;;;;;;5032330;28;20464;-57
2021/11/17 02:32:10;;;;;;;6.47;4.32;;;;;;;;;;5035541;28;20473;-56
2021/11/17 02:34:53;;;;;;;6.93;3.13;;;;;;;;;;5038924;28;20025;-57
2021/11/17 02:37:24;;;;;;;5.47;3.25;;;;;;;;;;5035305;28;20060;-57
2021/11/17 02:39:50;;;;;;;4.40;3.30;;;;;;;;;;5036030;28;20457;-57
2021/11/17 02:42:38;;;;;;;9.18;3.10;;;;;;;;;;5039556;28;20026;-57
2021/11/17 02:45:13;;;;;;;8.00;3.33;;;;;;;;;;5036081;28;20028;-56
2021/11/17 02:47:51;;;;;;;5.18;3.50;;;;;;;;;;5035603;28;20488;-57
2021/11/17 02:50:19;;;;;;;11.30;3.85;;;;;;;;;;5036551;28;20083;-55
2021/11/17 02:52:54;;;;;;;3.00;2.38;;;;;;;;;;5035681;28;20033;-57
2021/11/17 02:55:20;;;;;;;5.78;2.08;;;;;;;;;;5033310;28;20029;-56
2021/11/17 02:58:05;;;;;;;10.15;4.10;;;;;;;;;;5034568;28;20024;-57
2021/11/17 03:00:32;;;;;;;11.23;4.45;;;;;;;;;;5037645;28;20050;-58
2021/11/17 03:03:00;;;;;;;8.45;3.78;;;;;;;;;;5035147;28;20140;-58
2021/11/17 03:05:44;;;;;;;7.65;3.88;;;;;;;;;;5038829;28;20082;-58
2021/11/17 03:08:15;;;;;;;5.97;2.80;;;;;;;;;;5031168;28;20137;-57
2021/11/17 03:11:06;;;;;;;6.88;3.03;;;;;;;;;;5039048;28;20502;-58
2021/11/17 03:13:50;;;;;;;5.70;3.80;;;;;;;;;;5039940;28;20040;-58
2021/11/17 03:16:24;;;;;;;5.10;3.38;;;;;;;;;;5033466;28;20021;-57
2021/11/17 03:18:56;;;;;;;7.78;3.33;;;;;;;;;;5031503;28;20053;-58
2021/11/17 03:21:21;;;;;;;;;;;;;;;;;;5035494;28;20028;-58
2021/11/17 03:23:59;;;;;;;6.37;4.70;;;;;;;;;;5037812;28;20296;-58
2021/11/17 03:26:34;;;;;;;5.03;2.97;;;;;;;;;;5038202;28;20278;-58
2021/11/17 03:29:09;;;;;;;6.05;3.42;;;;;;;;;;5032796;28;20032;-58
2021/11/17 03:31:35;;;;;;;10.35;3.00;;;;;;;;;;5034288;28;20029;-58
2021/11/17 03:34:09;;;;;;;10.15;3.75;;;;;;;;;;5040112;28;20029;-58
2021/11/17 03:37:02;;;;;;;12.63;2.95;;;;;;;;;;5035511;28;20016;-57
2021/11/17 03:39:27;;;;;;;7.18;4.05;;;;;;;;;;5034963;28;20566;-58
2021/11/17 03:42:11;;;;;;;7.63;3.08;;;;;;;;;;5033231;28;20029;-57
2021/11/17 03:44:55;;;;;;;6.97;2.80;;;;;;;;;;5036704;28;20127;-57
2021/11/17 03:47:40;;;;;;;7.05;2.67;;;;;;;;;;5033243;28;20672;-57
2021/11/17 03:50:14;;;;;;;10.57;3.28;;;;;;;;;;5036715;28;20088;-58
2021/11/17 03:52:43;;;;;;;7.18;4.22;;;;;;;;;;5036913;28;20111;-57
2021/11/17 03:55:14;;;;;;;6.18;3.55;;;;;;;;;;5035474;28;20578;-58
2021/11/17 03:57:49;;;;;;;4.07;3.17;;;;;;;;;;5036664;28;20017;-58
2021/11/17 04:00:33;;;;;;;13.07;4.63;;;;;;;;;;5035200;28;20445;-57
2021/11/17 04:03:11;;;;;;;5.55;3.03;;;;;;;;;;5036694;28;20029;-57
2021/11/17 04:05:55;;;;;;;13.25;4.22;;;;;;;;;;5034047;28;20026;-58
2021/11/17 04:08:30;;;;;;;9.93;3.67;;;;;;;;;;5036491;28;20061;-58
2021/11/17 04:11:02;;;;;;;10.40;4.32;;;;;;;;;;5039989;28;20025;-58
2021/11/17 04:13:27;;;;;;;10.68;4.57;;;;;;;;;;5038967;28;20112;-58
2021/11/17 04:15:56;;;;;;;6.00;3.38;;;;;;;;;;5037517;28;20100;-58
2021/11/17 04:18:21;;;;;;;5.00;2.70;;;;;;;;;;5040384;28;20054;-58
2021/11/17 04:20:49;;;;;;;7.40;2.67;;;;;;;;;;5041518;28;20021;-58
2021/11/17 04:23:30;;;;;;;10.45;3.05;;;;;;;;;;5039845;28;20110;-58
2021/11/17 04:26:03;;;;;;;9.25;4.00;;;;;;;;;;5035898;28;20480;-57
2021/11/17 04:28:40;;;;;;;10.90;4.05;;;;;;;;;;5040454;28;20040;-58
2021/11/17 04:31:24;;;;;;;7.47;2.85;;;;;;;;;;5038980;28;20009;-56
2021/11/17 04:33:55;;;;;;;3.50;2.33;;;;;;;;;;5040439;28;20100;-57
2021/11/17 04:36:20;;;;;;;;;;;;;;;;;;5039139;28;20087;-58
2021/11/17 04:39:12;;;;;;;7.20;3.27;;;;;;;;;;5040961;28;20348;-57
2021/11/17 04:41:40;;;;;;;13.20;3.95;;;;;;;;;;5023192;28;20262;-58
2021/11/17 04:44:25;;;;;;;5.00;2.95;;;;;;;;;;5041547;28;20075;-56
2021/11/17 04:47:07;;;;;;;5.60;2.95;;;;;;;;;;5039030;28;20036;-58
2021/11/17 04:49:41;;;;;;;12.32;2.83;;;;;;;;;;5041140;28;20068;-57
2021/11/17 04:52:25;;;;;;;6.68;4.40;;;;;;;;;;5037224;28;20043;-56
2021/11/17 04:55:00;;;;;;;6.05;2.58;;;;;;;;;;5040592;28;20029;-57
2021/11/17 04:57:25;;;;;;;19.02;4.50;;;;;;;;;;5039020;28;20517;-57
2021/11/17 05:00:06;;;;;;;4.28;3.38;;;;;;;;;;5040632;28;20071;-57
2021/11/17 05:02:46;;;;;;;5.87;2.90;;;;;;;;;;5037904;28;20033;-58
2021/11/17 05:05:14;;;;;;;8.40;3.33;;;;;;;;;;5041150;28;20039;-58
2021/11/17 05:07:49;;;;;;;5.22;3.13;;;;;;;;;;5042175;28;20186;-58
2021/11/17 05:10:24;;;;;;;6.75;3.05;;;;;;;;;;5039035;28;20111;-58
2021/11/17 05:12:52;;;;;;;9.23;3.30;;;;;;;;;;5039260;28;20076;-57
2021/11/17 05:15:24;;;;;;;8.75;3.60;;;;;;;;;;5037352;28;20136;-57
2021/11/17 05:17:49;;;;;;;;;;;;;;;;;;5039730;28;20542;-58
2021/11/17 05:20:23;;;;;;;10.40;4.55;;;;;;;;;;5038162;28;19909;-58
2021/11/17 05:22:55;;;;;;;11.30;5.38;;;;;;;;;;5037098;28;20037;-57
2021/11/17 05:25:20;;;;;;;;;;;;;;;;;;5039711;28;20035;-57
2021/11/17 05:28:10;;;;;;;5.78;3.53;;;;;;;;;;5038998;28;20298;-58
2021/11/17 05:30:38;;;;;;;5.10;2.72;;;;;;;;;;5038923;28;20045;-57
2021/11/17 05:33:03;;;;;;;7.97;3.45;;;;;;;;;;5039468;28;20017;-58
2021/11/17 05:35:31;;;;;;;4.78;4.28;;;;;;;;;;5040114;28;20071;-57
2021/11/17 05:37:57;;;;;;;3.35;2.47;;;;;;;;;;5042462;28;20436;-57
2021/11/17 05:40:45;;;;;;;14.88;2.92;;;;;;;;;;5033155;28;20026;-57
2021/11/17 05:43:16;;;;;;;18.92;3.55;;;;;;;;;;5036699;28;20061;-58
2021/11/17 05:45:42;;;;;;;9.50;5.40;;;;;;;;;;5038277;28;20401;-58
2021/11/17 05:48:19;;;;;;;4.40;2.55;;;;;;;;;;5036397;28;20066;-57
2021/11/17 05:50:54;;;;;;;9.00;5.07;;;;;;;;;;5037235;28;20524;-57
2021/11/17 05:53:42;;;;;;;6.70;4.32;;;;;;;;;;5036879;28;20488;-58
2021/11/17 05:56:07;;;;;;;3.95;2.97;;;;;;;;;;5040778;28;20033;-57
2021/11/17 05:58:43;;;;;;;8.10;5.13;;;;;;;;;;5039067;28;20024;-58
2021/11/17 06:01:38;;;;;;;6.30;4.38;;;;;;;;;;5031564;28;20025;-56
2021/11/17 06:04:04;;;;;;;11.20;4.72;;;;;;;;;;5026967;28;20026;-58
2021/11/17 06:06:36;;;;;;;12.48;6.47;;;;;;;;;;5036164;28;20057;-58
2021/11/17 06:09:01;;;;;;;;;;;;;;;;;;5037068;28;20026;-57
2021/11/17 06:11:41;;;;;;;9.30;3.63;;;;;;;;;;5035250;28;19909;-57
2021/11/17 06:14:08;;;;;;;8.35;4.88;;;;;;;;;;5034530;28;20082;-58
2021/11/17 06:16:38;;;;;;;23.85;13.15;;;;;;;;;;5035835;28;20035;-58
2021/11/17 06:19:03;;;;;;;8.98;4.85;;;;;;;;;;5037474;28;20009;-57
2021/11/17 06:21:28;;;;;;;13.07;4.72;;;;;;;;;;5033153;28;20032;-57
2021/11/17 06:23:56;;;;;;;9.95;4.78;;;;;;;;;;5036206;28;20036;-58
2021/11/17 06:26:23;;;;;;;6.63;4.22;;;;;;;;;;5036266;28;20070;-58
2021/11/17 06:28:52;;;;;;;6.45;4.65;;;;;;;;;;5036190;28;20080;-57
2021/11/17 06:31:17;;;;;;;10.40;3.63;;;;;;;;;;5034794;28;20586;-56
2021/11/17 06:33:42;;;;;;;5.97;3.17;;;;;;;;;;5035833;28;20028;-57
2021/11/17 06:36:08;;;;;;;9.20;3.88;;;;;;;;;;5039120;28;20705;-57
2021/11/17 06:38:33;;;;;;;9.35;6.68;;;;;;;;;;5035037;28;20022;-57
2021/11/17 06:40:58;;;;;;;8.43;6.45;;;;;;;;;;5037378;28;20017;-58
2021/11/17 06:43:24;;;;;;;8.63;5.45;;;;;;;;;;5036405;28;20032;-58
2021/11/17 06:45:52;;;;;;;8.50;5.40;;;;;;;;;;5032846;28;20036;-57
2021/11/17 06:48:18;;;;;;;9.77;4.80;;;;;;;;;;5037145;28;20218;-58
2021/11/17 06:50:44;;;;;;;8.25;5.85;;;;;;;;;;5034114;28;20646;-57
2021/11/17 06:53:10;;;;;;;18.50;16.20;;;;;;;;;;5034561;28;20029;-60
2021/11/17 06:55:36;;;;;;;15.57;9.52;;;;;;;;;;5037137;28;20590;-60
2021/11/17 06:58:01;;;;;;;5.97;3.47;;;;;;;;;;5033120;28;20104;-60
2021/11/17 07:00:28;;;;;;;11.40;4.88;;;;;;;;;;5033460;28;20125;-60
2021/11/17 07:02:53;;;;;;;8.07;6.93;;;;;;;;;;5035481;28;20033;-59
2021/11/17 07:05:20;;;;;;;11.40;5.80;;;;;;;;;;5034326;28;20048;-60
2021/11/17 07:07:45;;;;;;;5.72;4.50;;;;;;;;;;5035797;28;20021;-60
2021/11/17 07:10:12;;;;;;;6.47;4.78;;;;;;;;;;5034271;28;20030;-61
2021/11/17 07:12:37;;;;;;;7.15;3.78;;;;;;;;;;5035901;28;20040;-61
2021/11/17 07:15:03;;;;;;;8.73;5.07;;;;;;;;;;5038450;28;20083;-61
2021/11/17 07:17:28;;;;;;;7.57;4.90;;;;;;;;;;5038697;28;20636;-62
2021/11/17 07:19:54;;;;;;;7.85;5.95;;;;;;;;;;5038847;28;20013;-61
2021/11/17 07:22:19;;;;;;;5.75;3.33;;;;;;;;;;5035371;28;20096;-63
2021/11/17 07:24:44;;;;;;;13.93;4.50;;;;;;;;;;5031677;28;20033;-61
2021/11/17 07:27:18;;;;;;;11.13;4.82;;;;;;;;;;5029494;28;20120;-61
2021/11/17 07:29:44;;;;;;;10.50;5.28;;;;;;;;;;5036184;28;20034;-62
2021/11/17 07:32:09;;;;;;;12.20;4.40;;;;;;;;;;5030406;28;20030;-62
2021/11/17 07:34:35;;;;;;;15.98;3.63;;;;;;;;;;5031551;28;20017;-61
2021/11/17 07:37:01;;;;;;;12.38;5.28;;;;;;;;;;5035823;28;20083;-61
2021/11/17 07:39:26;;;;;;;16.13;3.80;;;;;;;;;;5036123;28;20013;-62
2021/11/17 07:41:52;;;;;;;5.28;3.80;;;;;;;;;;5034827;28;20095;-61
2021/11/17 07:44:18;;;;;;;12.02;4.30;;;;;;;;;;5035082;28;20025;-61
2021/11/17 07:46:44;;;;;;;16.60;6.22;;;;;;;;;;5035991;28;20026;-61
2021/11/17 07:49:10;;;;;;;9.05;4.15;;;;;;;;;;5035468;28;20030;-61
2021/11/17 07:51:35;;;;;;;5.63;3.53;;;;;;;;;;5034790;28;20567;-61
2021/11/17 07:54:00;;;;;;;11.30;4.80;;;;;;;;;;5034543;28;20086;-62
2021/11/17 07:56:26;;;;;;;12.95;3.55;;;;;;;;;;5035701;28;20025;-61
2021/11/17 07:58:51;;;;;;;9.65;2.75;;;;;;;;;;5035499;28;20488;-61
2021/11/17 08:01:17;;;;;;;5.88;3.20;;;;;;;;;;5036081;28;20083;-61
2021/11/17 08:03:43;;;;;;;12.98;5.20;;;;;;;;;;5033666;28;20095;-61
2021/11/17 08:06:13;;;;;;;10.00;3.15;;;;;;;;;;5032580;28;20021;-61
2021/11/17 08:08:39;;;;;;;7.45;3.15;;;;;;;;;;5036242;28;20029;-62
2021/11/17 08:11:07;;;;;;;19.35;4.20;;;;;;;;;;5036718;28;20040;-61
2021/11/17 08:13:33;;;;;;;10.52;4.63;;;;;;;;;;5034249;28;20021;-61
2021/11/17 08:15:59;;;;;;;16.65;4.03;;;;;;;;;;5032056;28;20473;-61
2021/11/17 08:18:26;;;;;;;12.95;4.22;;;;;;;;;;5031580;28;20033;-61
2021/11/17 08:20:51;;;;;;;8.75;4.90;;;;;;;;;;5034577;28;20061;-63
2021/11/17 08:23:16;;;;;;;4.53;3.38;;;;;;;;;;5033742;28;20049;-62
2021/11/17 08:25:42;;;;;;;23.90;6.43;;;;;;;;;;5036078;28;20108;-61
2021/11/17 08:28:08;;;;;;;13.77;5.10;;;;;;;;;;5034514;28;20044;-61
2021/11/17 08:30:34;;;;;;;9.07;5.00;;;;;;;;;;5036260;28;20496;-62
2021/11/17 08:33:00;;;;;;;7.70;4.93;;;;;;;;;;5032895;28;20036;-60
2021/11/17 08:35:26;;;;;;;8.68;4.43;;;;;;;;;;5034188;28;20017;-59
2021/11/17 08:37:53;;;;;;;10.20;6.35;;;;;;;;;;5036197;28;20111;-65
2021/11/17 08:40:20;;;;;;;10.30;4.13;;;;;;;;;;5036908;28;20071;-62
2021/11/17 08:42:46;;;;;;;11.07;4.32;;;;;;;;;;5034995;28;20088;-60
2021/11/17 08:45:11;;;;;;;8.00;5.55;;;;;;;;;;5031350;28;20759;-61
2021/11/17 08:47:37;;;;;;;6.60;4.47;;;;;;;;;;5033315;28;20051;-58
2021/11/17 08:50:04;;;;;;;28.42;16.25;;;;;;;;;;5032967;28;20618;-61
2021/11/17 08:52:29;;;;;;;8.68;4.15;;;;;;;;;;5033952;28;20035;-60
2021/11/17 08:54:54;;;;;;;10.20;7.25;;;;;;;;;;5040170;28;20009;-59
2021/11/17 08:57:20;;;;;;;12.77;9.40;;;;;;;;;;5039737;28;20035;-59
2021/11/17 08:59:46;;;;;;;13.02;6.80;;;;;;;;;;5038375;28;20040;-59
2021/11/17 09:02:12;;;;;;;16.27;9.70;;;;;;;;;;5037654;28;20139;-59
2021/11/17 09:04:38;;;;;;;15.48;6.65;;;;;;;;;;5036578;28;20515;-60
2021/11/17 09:07:03;;;;;;;30.65;16.27;;;;;;;;;;5038725;28;20441;-60
2021/11/17 09:09:29;;;;;;;30.92;18.98;;;;;;;;;;5039943;28;20738;-60
2021/11/17 09:11:54;;;;;;;37.42;29.33;;;;;;;;;;5038421;28;20394;-59
2021/11/17 09:14:20;;;;;;;13.30;9.05;;;;;;;;;;5041155;28;20035;-59
2021/11/17 09:16:45;;;;;;;13.38;4.43;;;;;;;;;;5037652;28;20026;-59
2021/11/17 09:19:11;;;;;;;8.90;6.28;;;;;;;;;;5041924;28;20103;-59
2021/11/17 09:21:38;;;;;;;10.57;6.40;;;;;;;;;;5040483;28;20025;-59
2021/11/17 09:24:05;;;;;;;15.65;6.30;;;;;;;;;;5039101;28;20527;-59
2021/11/17 09:26:31;;;;;;;33.10;7.68;;;;;;;;;;5043476;28;20055;-59
2021/11/17 09:28:57;;;;;;;10.63;4.85;;;;;;;;;;5035463;28;20067;-61
2021/11/17 09:31:23;;;;;;;18.75;3.65;;;;;;;;;;5036860;28;20033;-60
2021/11/17 09:33:48;;;;;;;14.07;5.63;;;;;;;;;;5038031;28;20025;-60
2021/11/17 09:36:15;;;;;;;22.95;10.63;;;;;;;;;;5039092;28;20023;-61
2021/11/17 09:38:40;;;;;;;14.60;7.90;;;;;;;;;;5038099;28;20044;-60
2021/11/17 09:41:11;;;;;;;19.55;5.38;;;;;;;;;;5038815;28;20017;-61
2021/11/17 09:43:42;;;;;;;10.80;5.32;;;;;;;;;;5035721;28;20083;-61
2021/11/17 09:46:08;;;;;;;15.60;7.97;;;;;;;;;;5037198;28;20028;-60
2021/11/17 09:48:35;;;;;;;6.00;3.63;;;;;;;;;;5040399;28;20052;-60
2021/11/17 09:51:02;;;;;;;11.77;5.18;;;;;;;;;;5038994;28;20041;-60
2021/11/17 09:53:30;;;;;;;8.30;4.90;;;;;;;;;;5036160;28;20021;-61
2021/11/17 09:56:11;;;;;;;9.85;4.47;;;;;;;;;;5038083;28;20040;-59
2021/11/17 09:58:38;;;;;;;9.13;8.23;;;;;;;;;;5036631;28;20017;-59
2021/11/17 10:01:15;;;;;;;18.48;9.05;;;;;;;;;;5039633;28;20020;-59
2021/11/17 10:04:01;;;;;;;11.90;6.50;;;;;;;;;;5040223;28;20033;-59
2021/11/17 10:14:21;;;;;;;13.18;5.13;;;;;;;;;;5037990;28;20025;-59
2021/11/17 10:16:47;;;;;;;15.50;5.18;;;;;;;;;;5038259;28;20032;-61
2021/11/17 10:19:33;;;;;;;19.52;5.70;;;;;;;;;;5036934;28;20099;-60
2021/11/17 10:22:09;;;;;;;7.68;2.67;;;;;;;;;;5036082;28;20025;-61
2021/11/17 10:24:51;;;;;;;14.93;4.13;;;;;;;;;;5038448;28;20049;-59
2021/11/17 10:27:36;;;;;;;9.32;3.13;;;;;;;;;;5037544;28;20124;-58
2021/11/17 10:30:07;;;;;;;25.27;23.15;;;;;;;;;;5034903;28;20735;-59
2021/11/17 10:32:32;;;;;;;11.65;6.07;;;;;;;;;;5037824;28;20021;-59
2021/11/17 10:35:14;;;;;;;14.93;5.00;;;;;;;;;;5038654;28;20390;-59
2021/11/17 10:37:41;;;;;;;10.93;5.43;;;;;;;;;;5035827;28;20106;-59
2021/11/17 10:40:18;;;;;;;10.90;4.78;;;;;;;;;;5033512;28;20024;-60
2021/11/17 10:42:44;;;;;;;21.52;6.55;;;;;;;;;;5035016;28;20029;-59
2021/11/17 10:45:09;;;;;;;21.10;4.63;;;;;;;;;;5035165;28;20039;-60
2021/11/17 10:47:36;;;;;;;5.82;3.35;;;;;;;;;;5037417;28;20025;-60
2021/11/17 10:50:04;;;;;;;12.80;3.53;;;;;;;;;;5035565;28;20049;-59
2021/11/17 10:52:50;;;;;;;11.30;4.22;;;;;;;;;;5033787;28;20386;-59
2021/11/17 10:55:26;;;;;;;22.63;5.18;;;;;;;;;;5035693;28;20025;-59
2021/11/17 10:57:52;;;;;;;9.52;4.22;;;;;;;;;;5038003;28;20021;-59
2021/11/17 11:00:19;;;;;;;9.00;4.05;;;;;;;;;;5034914;28;20028;-59
2021/11/17 11:02:46;;;;;;;11.85;3.83;;;;;;;;;;5034835;28;20480;-58
2021/11/17 11:05:14;;;;;;;13.00;3.72;;;;;;;;;;5036777;28;20144;-56
2021/11/17 11:07:43;;;;;;;21.58;6.82;;;;;;;;;;5037752;28;20036;-55
2021/11/17 11:10:27;;;;;;;8.52;2.75;;;;;;;;;;5032952;28;20500;-53
2021/11/17 11:12:53;;;;;;;9.63;5.00;;;;;;;;;;5034222;28;20022;-54
2021/11/17 11:15:22;;;;;;;11.48;4.80;;;;;;;;;;5035819;28;20086;-59
2021/11/17 11:18:09;;;;;;;14.23;4.65;;;;;;;;;;5031829;28;20124;-59
2021/11/17 11:20:35;;;;;;;7.82;4.40;;;;;;;;;;5032268;28;20104;-59
2021/11/17 11:23:11;;;;;;;9.48;3.50;;;;;;;;;;5034057;28;20120;-59
2021/11/17 11:25:36;;;;;;;14.70;4.95;;;;;;;;;;5035266;28;20033;-59
2021/11/17 11:28:20;;;;;;;18.00;5.32;;;;;;;;;;5033242;28;20807;-59
2021/11/17 11:31:01;;;;;;;20.42;4.72;;;;;;;;;;5030906;28;20048;-59
2021/11/17 11:33:49;;;;;;;9.57;2.37;;;;;;;;;;5034750;28;20033;-59
2021/11/17 11:36:14;;;;;;;12.02;4.40;;;;;;;;;;5026859;28;20028;-59
2021/11/17 11:39:12;;;;;;;9.25;3.28;;;;;;;;;;5030426;28;20514;-59
2021/11/17 11:41:40;;;;;;;13.55;4.05;;;;;;;;;;5038867;28;20136;-59
2021/11/17 11:44:22;;;;;;;7.60;2.65;;;;;;;;;;5032104;28;20367;-59
2021/11/17 11:47:10;;;;;;;9.88;3.58;;;;;;;;;;5033812;28;20090;-60
2021/11/17 11:49:44;;;;;;;4.68;2.55;;;;;;;;;;5027601;28;20025;-59
2021/11/17 11:52:28;;;;;;;6.22;2.30;;;;;;;;;;5036147;28;20104;-59
2021/11/17 11:54:53;;;;;;;5.45;2.20;;;;;;;;;;5033687;28;20476;-58
2021/11/17 11:57:27;;;;;;;9.20;2.72;;;;;;;;;;5034758;28;20033;-59
2021/11/17 11:59:54;;;;;;;4.63;2.28;;;;;;;;;;5032018;28;20511;-59
2021/11/17 12:02:22;;;;;;;8.00;4.82;;;;;;;;;;5032638;28;20045;-59
2021/11/17 12:04:49;;;;;;;5.00;2.47;;;;;;;;;;5031053;28;20029;-57
2021/11/17 12:07:16;;;;;;;5.30;3.53;;;;;;;;;;5032432;28;20508;-58
2021/11/17 12:10:00;;;;;;;14.18;2.33;;;;;;;;;;5035025;28;20025;-59
2021/11/17 12:12:28;;;;;;;4.53;2.20;;;;;;;;;;5033624;28;20531;-58
2021/11/17 12:15:10;;;;;;;8.52;5.10;;;;;;;;;;5035643;28;20128;-59
2021/11/17 12:17:36;;;;;;;18.73;3.47;;;;;;;;;;5036566;28;20554;-60
2021/11/17 12:20:18;;;;;;;15.80;4.18;;;;;;;;;;5034188;28;20041;-60
2021/11/17 12:22:45;;;;;;;11.70;2.90;;;;;;;;;;5034095;28;20156;-60
2021/11/17 12:25:20;;;;;;;7.10;6.40;;;;;;;;;;5033784;28;20041;-59
2021/11/17 12:27:47;;;;;;;9.57;6.22;;;;;;;;;;5031714;28;20037;-59
2021/11/17 12:30:19;;;;;;;12.20;5.10;;;;;;;;;;5036703;28;20137;-59
2021/11/17 12:33:09;;;;;;;10.13;3.58;;;;;;;;;;5036882;28;20574;-59
2021/11/17 12:35:37;;;;;;;6.85;5.22;;;;;;;;;;5037360;28;20026;-59
2021/11/17 12:38:29;;;;;;;7.72;5.15;;;;;;;;;;5036978;28;20024;-59
2021/11/17 12:40:54;;;;;;;;;;;;;;;;;;5038220;28;20480;-59
2021/11/17 12:43:33;;;;;;;4.07;3.17;;;;;;;;;;5041792;28;19905;-57
2021/11/17 12:46:16;;;;;;;6.72;2.60;;;;;;;;;;5039728;28;20247;-58
2021/11/17 12:48:53;;;;;;;10.02;2.70;;;;;;;;;;5040410;28;20030;-58
2021/11/17 12:51:30;;;;;;;5.15;3.40;;;;;;;;;;5039401;28;20049;-59
2021/11/17 12:53:58;;;;;;;9.32;4.03;;;;;;;;;;5037557;28;20704;-57
2021/11/17 12:56:25;;;;;;;9.50;4.13;;;;;;;;;;5039505;28;20022;-57
2021/11/17 12:59:10;;;;;;;4.43;2.40;;;;;;;;;;5037663;28;20120;-55
2021/11/17 13:01:37;;;;;;;8.55;4.28;;;;;;;;;;5039764;28;20025;-58
2021/11/17 13:04:16;;;;;;;7.75;3.85;;;;;;;;;;5035476;28;20031;-57
2021/11/17 13:06:41;;;;;;;12.95;7.50;;;;;;;;;;5037109;28;20036;-57
2021/11/17 13:09:09;;;;;;;6.18;5.30;;;;;;;;;;5039408;28;20036;-57
2021/11/17 13:11:45;;;;;;;6.28;4.60;;;;;;;;;;5037675;28;20037;-57
2021/11/17 13:14:15;;;;;;;7.28;2.58;;;;;;;;;;5037699;28;20021;-58
2021/11/17 13:16:44;;;;;;;3.50;2.78;;;;;;;;;;5036905;28;20307;-57
2021/11/17 13:19:32;;;;;;;10.20;3.72;;;;;;;;;;5039070;28;20110;-58
2021/11/17 13:22:03;;;;;;;6.32;3.85;;;;;;;;;;5036950;28;20025;-57
2021/11/17 13:24:32;;;;;;;4.45;3.00;;;;;;;;;;5037616;28;20025;-57
2021/11/17 13:27:09;;;;;;;17.00;4.68;;;;;;;;;;5040350;28;20053;-58
2021/11/17 13:29:53;;;;;;;11.30;4.57;;;;;;;;;;5035618;28;20159;-58
2021/11/17 13:32:26;;;;;;;5.45;4.15;;;;;;;;;;5039489;28;20056;-57
2021/11/17 13:34:53;;;;;;;8.93;4.45;;;;;;;;;;5038691;28;20029;-56
2021/11/17 13:37:24;;;;;;;17.10;3.83;;;;;;;;;;5035532;28;20025;-58
2021/11/17 13:39:53;;;;;;;7.35;4.97;;;;;;;;;;5036141;28;20108;-57
2021/11/17 13:42:19;;;;;;;7.20;4.18;;;;;;;;;;5039882;28;20164;-57
2021/11/17 13:44:44;;;;;;;2.88;2.35;;;;;;;;;;5034319;28;20168;-58
2021/11/17 13:47:11;;;;;;;8.07;2.08;;;;;;;;;;5043914;28;20061;-58
2021/11/17 13:49:38;;;;;;;6.38;4.00;;;;;;;;;;5034713;28;20033;-58
2021/11/17 13:52:04;;;;;;;9.88;3.42;;;;;;;;;;5034859;28;20021;-58
2021/11/17 13:54:29;;;;;;;4.93;2.63;;;;;;;;;;5038537;28;20021;-57
2021/11/17 13:56:55;;;;;;;13.15;3.10;;;;;;;;;;5035560;28;20024;-58
2021/11/17 13:59:20;;;;;;;9.20;4.30;;;;;;;;;;5039078;28;20496;-58
2021/11/17 14:01:46;;;;;;;21.23;5.95;;;;;;;;;;5039800;28;20094;-59
2021/11/17 14:04:11;;;;;;;11.35;4.75;;;;;;;;;;5037055;28;20476;-58
2021/11/17 14:06:37;;;;;;;19.35;7.32;;;;;;;;;;5036953;28;20036;-59
2021/11/17 14:09:03;;;;;;;19.20;7.07;;;;;;;;;;5037109;28;20373;-59
2021/11/17 14:11:31;;;;;;;9.68;5.53;;;;;;;;;;5039306;28;20555;-58
2021/11/17 14:13:56;;;;;;;18.58;8.00;;;;;;;;;;5038304;28;20056;-58
2021/11/17 14:16:22;;;;;;;13.95;5.03;;;;;;;;;;5037899;28;20022;-59
2021/11/17 14:18:50;;;;;;;10.60;4.90;;;;;;;;;;5039425;28;20017;-59
2021/11/17 14:21:15;;;;;;;9.18;3.03;;;;;;;;;;5035070;28;20014;-59
2021/11/17 14:23:40;;;;;;;16.52;5.63;;;;;;;;;;5035640;28;20025;-61
2021/11/17 14:26:08;;;;;;;17.77;5.70;;;;;;;;;;5039535;28;20451;-57
2021/11/17 14:28:35;;;;;;;4.50;3.08;;;;;;;;;;5036617;28;20027;-56
2021/11/17 14:31:04;;;;;;;7.70;4.00;;;;;;;;;;5036641;28;20062;-57
2021/11/17 14:33:33;;;;;;;13.98;5.38;;;;;;;;;;5039485;28;20494;-58
2021/11/17 14:35:59;;;;;;;12.90;4.38;;;;;;;;;;5037386;28;20084;-57
2021/11/17 14:38:25;;;;;;;8.15;3.97;;;;;;;;;;5034548;28;20075;-55
2021/11/17 14:40:52;;;;;;;10.18;7.57;;;;;;;;;;5037091;28;20009;-59
2021/11/17 14:43:18;;;;;;;4.28;2.20;;;;;;;;;;5036915;28;20013;-58
2021/11/17 14:45:44;;;;;;;13.10;5.75;;;;;;;;;;5037577;28;20032;-58
2021/11/17 14:48:10;;;;;;;12.07;4.60;;;;;;;;;;5036368;28;20668;-58
2021/11/17 14:50:35;;;;;;;14.05;3.30;;;;;;;;;;5035738;28;20061;-55
2021/11/17 14:53:00;;;;;;;19.95;5.03;;;;;;;;;;5032169;28;20684;-57
2021/11/17 14:55:27;;;;;;;12.07;4.50;;;;;;;;;;5034057;28;20060;-57
2021/11/17 14:57:53;;;;;;;28.75;5.18;;;;;;;;;;5038623;28;20025;-57
2021/11/17 15:00:24;;;;;;;12.02;5.82;;;;;;;;;;5033510;28;20509;-57
2021/11/17 15:02:52;;;;;;;16.83;6.13;;;;;;;;;;5037668;28;20025;-57
2021/11/17 15:05:17;;;;;;;17.67;5.75;;;;;;;;;;5034466;28;20026;-57
2021/11/17 15:07:42;;;;;;;10.90;6.15;;;;;;;;;;5038522;28;20021;-57
2021/11/17 15:10:09;;;;;;;20.35;7.93;;;;;;;;;;5038681;28;20491;-56
2021/11/17 15:12:35;;;;;;;27.05;9.43;;;;;;;;;;5035549;28;20044;-56
2021/11/17 15:15:03;;;;;;;12.65;9.20;;;;;;;;;;5032517;28;20078;-56
2021/11/17 15:17:28;;;;;;;11.88;7.05;;;;;;;;;;5034078;28;20018;-55
2021/11/17 15:19:53;;;;;;;13.63;6.32;;;;;;;;;;5033907;28;20664;-56
2021/11/17 15:22:22;;;;;;;15.25;9.00;;;;;;;;;;5036201;28;20091;-56
2021/11/17 15:24:47;;;;;;;16.15;8.43;;;;;;;;;;5038993;28;20025;-57
2021/11/17 15:27:33;;;;;;;13.90;10.80;;;;;;;;;;5036273;28;20027;-56
2021/11/17 15:29:59;;;;;;;8.10;5.05;;;;;;;;;;5031779;28;20057;-56
2021/11/17 15:32:25;;;;;;;4.20;3.80;;;;;;;;;;5034681;28;20159;-50
2021/11/17 15:34:50;;;;;;;8.73;2.63;;;;;;;;;;5035638;28;20612;-58
2021/11/17 15:37:16;;;;;;;13.82;8.63;;;;;;;;;;5037937;28;20508;-58
2021/11/17 15:39:42;;;;;;;10.55;3.38;;;;;;;;;;5032542;28;20597;-57
2021/11/17 15:42:07;;;;;;;14.57;4.93;;;;;;;;;;5032919;28;20109;-56
2021/11/17 15:44:33;;;;;;;16.13;6.82;;;;;;;;;;5033745;28;20025;-57
2021/11/17 15:47:01;;;;;;;11.13;4.53;;;;;;;;;;5035535;28;20354;-57
2021/11/17 15:49:26;;;;;;;15.32;9.25;;;;;;;;;;5037493;28;20025;-58
2021/11/17 15:51:52;;;;;;;11.23;6.53;;;;;;;;;;5039278;28;20407;-56
2021/11/17 15:54:18;;;;;;;35.97;8.57;;;;;;;;;;5036488;28;20033;-56
2021/11/17 15:56:43;;;;;;;17.83;9.52;;;;;;;;;;5037548;28;20024;-58
2021/11/17 15:59:11;;;;;;;27.00;9.98;;;;;;;;;;5040491;28;20021;-57
2021/11/17 16:01:38;;;;;;;16.25;12.05;;;;;;;;;;5036448;28;20044;-56
2021/11/17 16:04:03;;;;;;;17.55;9.18;;;;;;;;;;5040237;28;20021;-57
2021/11/17 16:06:30;;;;;;;10.25;7.65;;;;;;;;;;5044802;28;20032;-57
2021/11/17 16:08:56;;;;;;;21.60;14.95;;;;;;;;;;5045075;28;20050;-56
2021/11/17 16:11:21;;;;;;;21.15;16.42;;;;;;;;;;5043189;28;20064;-57
2021/11/17 16:13:47;;;;;;;16.52;10.32;;;;;;;;;;5039433;28;20091;-57
2021/11/17 16:16:13;;;;;;;15.07;9.63;;;;;;;;;;5040830;28;20043;-58
2021/11/17 16:18:38;;;;;;;13.52;7.78;;;;;;;;;;5044115;28;20112;-56
2021/11/17 16:21:05;;;;;;;12.07;6.53;;;;;;;;;;5043778;28;20475;-58
2021/11/17 16:26:25;;;;;;;14.93;12.43;;;;;;;;;;5042132;28;20037;-57
2021/11/17 16:28:51;;;;;;;22.38;12.45;;;;;;;;;;5037447;28;20017;-57
2021/11/17 16:31:19;;;;;;;13.65;10.18;;;;;;;;;;5040025;28;20677;-58
2021/11/17 16:33:44;;;;;;;9.25;6.07;;;;;;;;;;5039934;28;20040;-57
2021/11/17 16:36:11;;;;;;;34.28;24.15;;;;;;;;;;5044760;28;20439;-57
2021/11/17 16:38:37;;;;;;;16.38;14.73;;;;;;;;;;5039063;28;20032;-58
2021/11/17 16:41:03;;;;;;;72.68;65.15;;;;;;;;;;5041460;28;20013;-56
2021/11/17 16:43:29;;;;;;;29.95;20.95;;;;;;;;;;5041983;28;20033;-57
2021/11/17 16:45:55;;;;;;;19.85;14.43;;;;;;;;;;5040587;28;20031;-61
2021/11/17 16:48:22;;;;;;;17.13;13.35;;;;;;;;;;5037632;28;20016;-58
2021/11/17 16:50:48;;;;;;;23.42;16.73;;;;;;;;;;5040212;28;20057;-59
2021/11/17 16:53:16;;;;;;;17.65;15.90;;;;;;;;;;5039250;28;20032;-58
2021/11/17 16:55:44;;;;;;;18.98;14.73;;;;;;;;;;5039717;28;20451;-58
2021/11/17 16:58:09;;;;;;;18.77;15.00;;;;;;;;;;5038670;28;20021;-59
2021/11/17 17:00:40;;;;;;;15.35;13.98;;;;;;;;;;5039194;28;20232;-58
2021/11/17 17:03:08;;;;;;;23.80;21.30;;;;;;;;;;5039110;28;20025;-58
2021/11/17 17:05:33;;;;;;;30.77;24.00;;;;;;;;;;5038343;28;20029;-58
2021/11/17 17:07:58;;;;;;;25.92;21.13;;;;;;;;;;5038718;28;20163;-56
2021/11/17 17:10:25;;;;;;;16.92;15.35;;;;;;;;;;5042308;28;20051;-52
2021/11/17 17:12:50;;;;;;;28.85;18.77;;;;;;;;;;5039594;28;20048;-56
2021/11/17 17:15:17;;;;;;;52.28;46.92;;;;;;;;;;5038907;28;20485;-56
2021/11/17 17:17:43;;;;;;;27.08;21.55;;;;;;;;;;5039564;28;20715;-49
2021/11/17 17:20:10;;;;;;;23.08;20.83;;;;;;;;;;5039504;28;20028;-50
2021/11/17 17:22:35;;;;;;;30.80;23.20;;;;;;;;;;5041997;28;20427;-57
2021/11/17 17:25:01;;;;;;;33.25;26.00;;;;;;;;;;5038648;28;20033;-57
2021/11/17 17:27:27;;;;;;;50.00;42.05;;;;;;;;;;5038581;28;20040;-58
2021/11/17 17:29:53;;;;;;;51.20;40.90;;;;;;;;;;5038253;28;20022;-55